Time;durP1;ratioP1;P1;durP2;ratioP2;P2;SDS_P1;SDS_P2;PMS_P1;PMS_P2;Temp;Humidity;BMP_temperature;BMP_pressure;BME280_temperature;BME280_humidity;BME280_pressure;Samples;Min_cycle;Max_cycle;Signal;HPM_P1;HPM_P2
2021/10/27 00:00:44;;;;;;;9.32;7.55;;;13.60;92.20;;;;;;2063839;28;20061;-90
2021/10/27 00:01:45;;;;;;;10.10;7.70;;;13.60;92.20;;;;;;2072253;28;20125;-91
2021/10/27 00:02:46;;;;;;;11.30;7.40;;;13.60;92.20;;;;;;2074502;28;20400;-91
2021/10/27 00:03:47;;;;;;;12.27;7.82;;;13.60;92.20;;;;;;2074184;28;20153;-91
2021/10/27 00:04:48;;;;;;;9.48;7.18;;;13.60;92.20;;;;;;2079248;28;20033;-91
2021/10/27 00:05:48;;;;;;;9.50;7.35;;;13.60;92.20;;;;;;2073588;28;20097;-90
2021/10/27 00:06:49;;;;;;;11.10;7.80;;;13.70;92.20;;;;;;2070765;28;20049;-91
2021/10/27 00:07:50;;;;;;;9.25;6.93;;;13.60;92.20;;;;;;2074040;28;20041;-91
2021/10/27 00:08:50;;;;;;;10.98;7.45;;;13.60;92.20;;;;;;2065978;28;20042;-90
2021/10/27 00:09:51;;;;;;;12.30;7.78;;;13.60;92.20;;;;;;2073990;28;20081;-91
2021/10/27 00:10:52;;;;;;;10.05;7.50;;;13.60;92.20;;;;;;2074465;28;20037;-90
2021/10/27 00:11:52;;;;;;;9.75;7.45;;;13.70;92.30;;;;;;2081176;28;20661;-91
2021/10/27 00:12:53;;;;;;;12.02;7.47;;;13.60;92.20;;;;;;2077060;28;20109;-91
2021/10/27 00:13:54;;;;;;;9.68;7.43;;;13.70;92.30;;;;;;2065943;28;20054;-91
2021/10/27 00:14:56;;;;;;;10.40;8.05;;;13.70;92.30;;;;;;2057970;28;20069;-91
2021/10/27 00:15:56;;;;;;;9.27;6.82;;;13.60;92.30;;;;;;2065803;28;20129;-91
2021/10/27 00:16:57;;;;;;;10.23;7.07;;;13.60;92.30;;;;;;2066031;28;20038;-90
2021/10/27 00:17:57;;;;;;;10.52;8.10;;;13.70;92.30;;;;;;2073876;28;20054;-90
2021/10/27 00:18:58;;;;;;;10.48;7.72;;;13.60;92.30;;;;;;2079680;28;20591;-91
2021/10/27 00:19:59;;;;;;;10.35;7.07;;;13.70;92.30;;;;;;2069223;28;20044;-90
2021/10/27 00:20:59;;;;;;;11.63;7.63;;;13.70;92.30;;;;;;2066450;28;20041;-89
2021/10/27 00:22:00;;;;;;;11.15;8.15;;;13.70;92.30;;;;;;2073707;28;20038;-90
2021/10/27 00:23:01;;;;;;;12.05;8.05;;;13.60;92.30;;;;;;2065790;28;20167;-90
2021/10/27 00:24:02;;;;;;;10.40;7.85;;;13.70;92.30;;;;;;2069493;28;20101;-91
2021/10/27 00:25:03;;;;;;;9.75;7.18;;;13.70;92.30;;;;;;2073736;28;20038;-91
2021/10/27 00:26:04;;;;;;;11.02;7.85;;;13.70;92.30;;;;;;2065763;28;20038;-90
2021/10/27 00:27:07;;;;;;;10.38;7.72;;;13.70;92.30;;;;;;2058112;28;20499;-91
2021/10/27 00:28:07;;;;;;;10.10;7.55;;;13.70;92.30;;;;;;2065951;28;20038;-90
2021/10/27 00:29:08;;;;;;;10.75;7.70;;;13.70;92.30;;;;;;2056257;28;20465;-90
2021/10/27 00:30:10;;;;;;;12.15;7.93;;;13.70;92.60;;;;;;2057524;28;20645;-91
2021/10/27 00:31:10;;;;;;;9.50;7.85;;;13.70;92.30;;;;;;2065885;28;20455;-90
2021/10/27 00:32:11;;;;;;;11.23;7.82;;;13.70;92.30;;;;;;2065509;28;20034;-90
2021/10/27 00:33:13;;;;;;;11.43;7.70;;;13.70;92.30;;;;;;2075070;28;20044;-91
2021/10/27 00:34:13;;;;;;;10.68;8.30;;;13.70;92.30;;;;;;2074250;28;20034;-91
2021/10/27 00:35:14;;;;;;;9.88;7.65;;;13.70;92.30;;;;;;2076917;28;20524;-90
2021/10/27 00:36:15;;;;;;;11.50;7.72;;;13.70;92.30;;;;;;2078993;28;20049;-91
2021/10/27 00:37:16;;;;;;;11.02;7.75;;;13.70;92.30;;;;;;2074785;28;20167;-90
2021/10/27 00:38:17;;;;;;;12.00;8.05;;;13.80;92.30;;;;;;2077549;28;20072;-91
2021/10/27 00:39:17;;;;;;;10.75;7.25;;;13.70;92.30;;;;;;2081411;28;20092;-91
2021/10/27 00:40:18;;;;;;;9.70;7.18;;;13.70;92.30;;;;;;2081939;28;20045;-91
2021/10/27 00:41:18;;;;;;;11.60;7.72;;;13.70;92.30;;;;;;2073997;28;20104;-91
2021/10/27 00:42:20;;;;;;;9.50;7.32;;;13.80;92.30;;;;;;2071072;28;20160;-91
2021/10/27 00:43:20;;;;;;;9.82;7.47;;;13.80;92.30;;;;;;2072904;28;20038;-91
2021/10/27 00:44:24;;;;;;;11.68;7.47;;;13.80;92.30;;;;;;2057862;28;20079;-92
2021/10/27 00:45:24;;;;;;;10.60;7.30;;;13.80;92.30;;;;;;2050742;28;20043;-90
2021/10/27 00:46:26;;;;;;;11.35;7.60;;;13.80;92.30;;;;;;2074988;28;20432;-90
2021/10/27 00:47:27;;;;;;;11.27;7.03;;;13.80;92.30;;;;;;2080685;28;20053;-91
2021/10/27 00:48:28;;;;;;;10.23;7.10;;;13.80;92.30;;;;;;2067431;28;20133;-91
2021/10/27 00:49:30;;;;;;;11.10;7.63;;;13.80;92.30;;;;;;2074330;28;20034;-90
2021/10/27 00:50:32;;;;;;;9.63;7.30;;;13.80;92.30;;;;;;2085132;28;20088;-91
2021/10/27 00:51:33;;;;;;;10.00;7.50;;;13.80;92.30;;;;;;2077819;28;20080;-91
2021/10/27 00:52:33;;;;;;;11.25;7.35;;;13.80;92.30;;;;;;2078034;28;20038;-90
2021/10/27 00:53:35;;;;;;;10.18;7.63;;;13.80;92.30;;;;;;2067776;28;20039;-91
2021/10/27 00:54:37;;;;;;;9.88;7.28;;;13.80;92.30;;;;;;2071542;28;20041;-90
2021/10/27 00:55:39;;;;;;;10.43;7.63;;;13.80;92.60;;;;;;2074632;28;20045;-92
2021/10/27 00:56:40;;;;;;;9.20;7.20;;;13.80;92.30;;;;;;2077601;28;20041;-90
2021/10/27 00:57:41;;;;;;;9.73;7.30;;;13.80;92.30;;;;;;2075138;28;20447;-90
2021/10/27 00:58:44;;;;;;;12.10;8.20;;;13.80;92.30;;;;;;2074664;28;20045;-90
2021/10/27 00:59:45;;;;;;;10.00;7.65;;;13.80;92.30;;;;;;2083532;28;20026;-91
2021/10/27 01:00:46;;;;;;;10.85;7.75;;;13.80;92.30;;;;;;2083997;28;20131;-92
2021/10/27 01:01:47;;;;;;;9.88;7.93;;;13.80;92.40;;;;;;2080749;28;20121;-92
2021/10/27 01:02:48;;;;;;;10.15;7.68;;;13.80;92.40;;;;;;2073621;28;20078;-92
2021/10/27 01:03:49;;;;;;;11.00;7.72;;;13.80;92.40;;;;;;2071818;28;20042;-91
2021/10/27 01:04:50;;;;;;;10.02;7.55;;;13.80;92.40;;;;;;2077106;28;20109;-91
2021/10/27 01:05:51;;;;;;;12.32;8.25;;;13.90;92.40;;;;;;2073762;28;20042;-90
2021/10/27 01:06:52;;;;;;;10.40;8.20;;;13.80;92.40;;;;;;2079206;28;20033;-92
2021/10/27 01:07:54;;;;;;;10.73;8.02;;;13.80;92.40;;;;;;2073748;28;20094;-91
2021/10/27 01:08:55;;;;;;;10.30;8.13;;;13.80;92.50;;;;;;2078209;28;20018;-91
2021/10/27 01:09:56;;;;;;;11.93;7.82;;;13.90;92.50;;;;;;2082581;28;20045;-92
2021/10/27 01:10:56;;;;;;;11.25;8.00;;;13.80;92.50;;;;;;2081945;28;20117;-92
2021/10/27 01:11:59;;;;;;;10.55;7.88;;;13.80;92.50;;;;;;2072205;28;20053;-92
2021/10/27 01:13:00;;;;;;;9.73;7.78;;;13.80;92.50;;;;;;2082042;28;20037;-92
2021/10/27 01:14:07;;;;;;;10.50;7.80;;;13.80;92.50;;;;;;2081898;28;20033;-91
2021/10/27 01:15:08;;;;;;;10.50;7.40;;;13.80;92.50;;;;;;2082496;28;20049;-91
2021/10/27 01:16:09;;;;;;;9.10;7.45;;;13.80;92.60;;;;;;2073721;28;20125;-91
2021/10/27 01:17:12;;;;;;;11.20;7.70;;;13.80;92.60;;;;;;2061290;28;20078;-92
2021/10/27 01:18:13;;;;;;;10.20;8.00;;;13.80;92.60;;;;;;2077048;28;20113;-91
2021/10/27 01:19:14;;;;;;;9.85;7.55;;;13.80;92.60;;;;;;2072029;28;20037;-91
2021/10/27 01:20:15;;;;;;;13.23;7.88;;;13.80;92.60;;;;;;2078186;28;20034;-91
2021/10/27 01:21:20;;;;;;;10.38;7.35;;;13.80;92.60;;;;;;2070362;28;20034;-92
2021/10/27 01:22:24;;;;;;;10.98;8.10;;;13.80;92.70;;;;;;2071071;28;20057;-91
2021/10/27 01:23:25;;;;;;;11.05;7.60;;;13.80;92.60;;;;;;2070092;28;20034;-91
2021/10/27 01:24:26;;;;;;;11.07;8.10;;;13.80;92.70;;;;;;2077919;28;20480;-91
2021/10/27 01:25:26;;;;;;;10.38;7.85;;;13.80;92.70;;;;;;2058269;28;20511;-91
2021/10/27 01:26:27;;;;;;;9.93;7.90;;;13.80;92.70;;;;;;2046728;28;20085;-91
2021/10/27 01:27:28;;;;;;;11.07;8.02;;;13.80;92.70;;;;;;2064902;28;20033;-92
2021/10/27 01:28:29;;;;;;;9.68;7.72;;;13.80;92.70;;;;;;2075819;28;20500;-91
2021/10/27 01:29:30;;;;;;;9.57;7.80;;;13.80;92.70;;;;;;2074602;28;20076;-91
2021/10/27 01:30:31;;;;;;;9.38;7.78;;;13.80;92.70;;;;;;2073445;28;20041;-91
2021/10/27 01:31:31;;;;;;;11.25;7.82;;;13.80;92.80;;;;;;2071161;28;20072;-91
2021/10/27 01:32:37;;;;;;;9.80;8.02;;;13.80;92.80;;;;;;2065344;28;20076;-92
2021/10/27 01:33:39;;;;;;;9.25;7.18;;;13.80;92.80;;;;;;2073522;28;20042;-92
2021/10/27 01:34:40;;;;;;;10.27;7.53;;;13.80;92.80;;;;;;2073950;28;20400;-92
2021/10/27 01:35:40;;;;;;;8.45;7.05;;;13.80;92.80;;;;;;2069583;28;20042;-91
2021/10/27 01:36:41;;;;;;;9.65;7.88;;;13.80;92.80;;;;;;2058400;28;20043;-93
2021/10/27 01:37:43;;;;;;;12.13;8.07;;;13.80;92.80;;;;;;2073507;28;20030;-92
2021/10/27 01:38:45;;;;;;;9.50;7.70;;;13.80;92.80;;;;;;2073303;28;20034;-92
2021/10/27 01:39:47;;;;;;;10.23;7.32;;;13.80;92.80;;;;;;2066490;28;20034;-92
2021/10/27 01:40:48;;;;;;;10.20;7.18;;;13.80;92.80;;;;;;2081802;28;20112;-90
2021/10/27 01:41:49;;;;;;;11.63;7.43;;;13.80;92.80;;;;;;2069611;28;20435;-91
2021/10/27 01:42:53;;;;;;;10.00;7.53;;;13.80;92.90;;;;;;2068046;28;20045;-91
2021/10/27 01:43:55;;;;;;;8.73;7.03;;;13.80;92.90;;;;;;2080833;28;20049;-91
2021/10/27 01:44:56;;;;;;;10.48;7.45;;;13.80;92.90;;;;;;2081798;28;20029;-92
2021/10/27 01:45:56;;;;;;;10.90;8.20;;;13.80;92.90;;;;;;2073303;28;20591;-92
2021/10/27 01:46:57;;;;;;;10.35;7.47;;;13.80;92.90;;;;;;2073551;28;20500;-91
2021/10/27 01:47:58;;;;;;;10.23;7.10;;;13.80;92.90;;;;;;2076646;28;20048;-91
2021/10/27 01:49:01;;;;;;;10.20;7.30;;;13.80;92.90;;;;;;2073753;28;20030;-92
2021/10/27 01:50:02;;;;;;;9.63;7.03;;;13.80;92.90;;;;;;2073828;28;20399;-91
2021/10/27 01:51:03;;;;;;;9.95;6.60;;;13.80;93.00;;;;;;2077549;28;20038;-92
2021/10/27 01:52:04;;;;;;;9.48;6.68;;;13.70;92.90;;;;;;2080554;28;20403;-92
2021/10/27 01:53:05;;;;;;;10.68;7.20;;;13.70;92.90;;;;;;2075577;28;20056;-92
2021/10/27 01:54:06;;;;;;;10.18;7.18;;;13.80;93.00;;;;;;2072843;28;20508;-92
2021/10/27 01:55:07;;;;;;;9.07;7.32;;;13.70;93.00;;;;;;2072851;28;20042;-91
2021/10/27 01:56:08;;;;;;;11.52;7.45;;;13.70;93.00;;;;;;2073285;28;20065;-91
2021/10/27 01:57:10;;;;;;;10.63;7.22;;;13.80;93.00;;;;;;2073842;28;20045;-92
2021/10/27 01:58:11;;;;;;;9.75;6.93;;;13.80;93.00;;;;;;2072712;28;20037;-91
2021/10/27 01:59:12;;;;;;;10.77;7.03;;;13.80;93.10;;;;;;2065656;28;20035;-92
2021/10/27 02:00:13;;;;;;;9.05;6.57;;;13.70;93.00;;;;;;2065130;28;20043;-91
2021/10/27 02:01:14;;;;;;;10.45;6.97;;;13.80;93.10;;;;;;2073428;28;20038;-92
2021/10/27 02:02:14;;;;;;;8.90;6.47;;;13.70;93.10;;;;;;2073909;28;20396;-92
2021/10/27 02:03:15;;;;;;;8.32;6.72;;;13.70;93.10;;;;;;2075007;28;20046;-91
2021/10/27 02:04:17;;;;;;;8.73;6.65;;;13.70;93.10;;;;;;2073374;28;20519;-91
2021/10/27 02:05:18;;;;;;;8.02;6.25;;;13.70;93.10;;;;;;2068967;28;20036;-91
2021/10/27 02:06:18;;;;;;;9.43;6.22;;;13.70;93.10;;;;;;2073265;28;20057;-91
2021/10/27 02:07:19;;;;;;;10.23;6.93;;;13.80;93.20;;;;;;2065287;28;20480;-92
2021/10/27 02:08:19;;;;;;;10.10;6.18;;;13.70;93.10;;;;;;2068448;28;20034;-91
2021/10/27 02:09:20;;;;;;;9.00;6.65;;;13.80;93.20;;;;;;2080913;28;20499;-91
2021/10/27 02:10:21;;;;;;;8.40;6.28;;;13.80;93.20;;;;;;2080271;28;20037;-92
2021/10/27 02:11:21;;;;;;;8.15;6.35;;;13.70;93.20;;;;;;2079912;28;20041;-91
2021/10/27 02:12:22;;;;;;;8.15;6.40;;;13.70;93.20;;;;;;2073220;28;20124;-91
2021/10/27 02:13:23;;;;;;;8.75;6.25;;;13.70;93.20;;;;;;2068753;28;20030;-92
2021/10/27 02:14:24;;;;;;;8.63;6.05;;;13.70;93.50;;;;;;2073366;28;20089;-91
2021/10/27 02:15:24;;;;;;;8.13;6.03;;;13.70;93.20;;;;;;2073505;28;20037;-91
2021/10/27 02:16:25;;;;;;;8.02;6.20;;;13.70;93.20;;;;;;2075325;28;20459;-91
2021/10/27 02:17:26;;;;;;;12.23;6.10;;;13.80;93.20;;;;;;2081523;28;20068;-91
2021/10/27 02:18:27;;;;;;;8.63;6.55;;;13.70;93.20;;;;;;2088894;28;20053;-91
2021/10/27 02:19:27;;;;;;;9.98;6.18;;;13.70;93.20;;;;;;2080533;28;20061;-91
2021/10/27 02:20:28;;;;;;;9.18;5.85;;;13.80;93.30;;;;;;2064147;28;20591;-92
2021/10/27 02:21:29;;;;;;;7.47;5.60;;;13.70;93.20;;;;;;2073229;28;20038;-90
2021/10/27 02:22:29;;;;;;;8.13;5.90;;;13.70;93.20;;;;;;2074571;28;20488;-93
2021/10/27 02:23:30;;;;;;;8.77;6.00;;;13.80;93.30;;;;;;2081086;28;20045;-91
2021/10/27 02:24:31;;;;;;;7.80;5.93;;;13.80;93.30;;;;;;2072978;28;20041;-91
2021/10/27 02:25:31;;;;;;;8.07;5.75;;;13.70;93.20;;;;;;2073051;28;20053;-92
2021/10/27 02:26:32;;;;;;;8.32;5.65;;;13.70;93.20;;;;;;2073382;28;20508;-91
2021/10/27 02:27:33;;;;;;;7.90;6.35;;;13.80;93.30;;;;;;2078972;28;20033;-91
2021/10/27 02:28:34;;;;;;;7.88;5.70;;;13.80;93.50;;;;;;2073130;28;20088;-92
2021/10/27 02:29:35;;;;;;;7.70;5.55;;;13.80;93.30;;;;;;2073118;28;20129;-92
2021/10/27 02:30:36;;;;;;;8.50;5.28;;;13.80;93.50;;;;;;2065120;28;20093;-92
2021/10/27 02:31:37;;;;;;;7.60;5.55;;;13.80;93.30;;;;;;2073223;28;20050;-93
2021/10/27 02:32:38;;;;;;;8.45;5.72;;;13.80;93.30;;;;;;2082573;28;20058;-91
2021/10/27 02:33:39;;;;;;;7.90;5.63;;;13.80;93.30;;;;;;2090160;28;20045;-91
2021/10/27 02:34:39;;;;;;;7.65;5.47;;;13.80;93.30;;;;;;2081634;28;20491;-91
2021/10/27 02:35:40;;;;;;;8.30;6.00;;;13.80;93.30;;;;;;2079706;28;20049;-91
2021/10/27 02:36:41;;;;;;;8.45;5.70;;;13.80;93.30;;;;;;2073140;28;20407;-92
2021/10/27 02:37:41;;;;;;;7.18;5.55;;;13.80;93.30;;;;;;2063817;28;20468;-91
2021/10/27 02:38:42;;;;;;;7.80;5.38;;;13.80;93.20;;;;;;2072878;28;20095;-92
2021/10/27 02:39:42;;;;;;;7.47;5.00;;;13.80;93.20;;;;;;2073286;28;20057;-92
2021/10/27 02:40:43;;;;;;;7.78;5.38;;;13.80;93.20;;;;;;2066029;28;20583;-91
2021/10/27 02:41:44;;;;;;;8.10;5.15;;;13.90;93.20;;;;;;2074950;28;20421;-92
2021/10/27 02:42:44;;;;;;;7.22;5.10;;;13.80;93.20;;;;;;2081528;28;20077;-91
2021/10/27 02:43:45;;;;;;;6.50;4.80;;;13.80;93.20;;;;;;2073483;28;20424;-91
2021/10/27 02:44:46;;;;;;;8.32;5.13;;;13.80;93.20;;;;;;2073180;28;20045;-91
2021/10/27 02:45:46;;;;;;;9.35;5.20;;;13.90;93.20;;;;;;2073176;28;20484;-91
2021/10/27 02:46:48;;;;;;;7.35;4.88;;;13.90;93.20;;;;;;2081371;28;20060;-92
2021/10/27 02:47:49;;;;;;;8.27;4.88;;;13.90;93.20;;;;;;2081446;28;20088;-92
2021/10/27 02:48:50;;;;;;;7.32;4.47;;;13.90;93.20;;;;;;2081300;28;20040;-92
2021/10/27 02:49:50;;;;;;;8.20;4.90;;;13.90;93.20;;;;;;2072636;28;20057;-91
2021/10/27 02:50:51;;;;;;;8.63;4.70;;;13.90;93.20;;;;;;2056471;28;20035;-93
2021/10/27 02:51:51;;;;;;;6.45;4.30;;;13.90;93.20;;;;;;2063275;28;20121;-91
2021/10/27 02:52:52;;;;;;;7.60;4.43;;;13.90;93.20;;;;;;2074808;28;20045;-91
2021/10/27 02:53:53;;;;;;;5.97;4.28;;;13.90;93.20;;;;;;2081962;28;20037;-91
2021/10/27 02:54:54;;;;;;;7.30;4.35;;;13.90;93.20;;;;;;2073733;28;20033;-92
2021/10/27 02:55:54;;;;;;;7.00;4.10;;;13.90;93.20;;;;;;2075442;28;20034;-89
2021/10/27 02:56:55;;;;;;;7.32;4.53;;;13.90;93.20;;;;;;2058353;28;20047;-92
2021/10/27 02:57:57;;;;;;;7.60;4.10;;;13.90;93.20;;;;;;2065902;28;20038;-91
2021/10/27 02:58:58;;;;;;;7.28;4.15;;;13.90;93.20;;;;;;2074713;28;20038;-92
2021/10/27 02:59:59;;;;;;;8.63;4.55;;;13.90;93.20;;;;;;2073354;28;20034;-91
2021/10/27 03:01:01;;;;;;;6.78;4.20;;;13.90;93.10;;;;;;2074480;28;20488;-90
2021/10/27 03:02:02;;;;;;;5.75;3.72;;;13.90;93.20;;;;;;2074867;28;20038;-92
2021/10/27 03:03:02;;;;;;;7.85;4.05;;;13.90;93.10;;;;;;2082247;28;20100;-91
2021/10/27 03:04:03;;;;;;;7.38;4.30;;;13.90;93.10;;;;;;2091526;28;20109;-92
2021/10/27 03:05:07;;;;;;;5.90;4.30;;;13.90;93.10;;;;;;2082751;28;20042;-91
2021/10/27 03:06:08;;;;;;;7.88;3.42;;;13.90;93.10;;;;;;2082622;28;20471;-91
2021/10/27 03:07:09;;;;;;;5.55;3.88;;;13.90;93.10;;;;;;2074346;28;20088;-91
2021/10/27 03:08:09;;;;;;;7.30;3.78;;;13.90;93.10;;;;;;2074444;28;20508;-91
2021/10/27 03:09:10;;;;;;;5.93;3.90;;;13.90;93.10;;;;;;2066364;28;20473;-91
2021/10/27 03:10:10;;;;;;;6.70;3.50;;;13.90;93.10;;;;;;2066005;28;20042;-92
2021/10/27 03:11:12;;;;;;;5.45;3.67;;;13.90;93.10;;;;;;2076963;28;20034;-92
2021/10/27 03:12:13;;;;;;;5.75;3.80;;;13.90;93.10;;;;;;2087875;28;20045;-92
2021/10/27 03:13:13;;;;;;;5.63;3.70;;;14.00;93.10;;;;;;2083940;28;20042;-93
2021/10/27 03:14:14;;;;;;;7.25;3.53;;;13.90;93.10;;;;;;2074474;28;20044;-92
2021/10/27 03:15:15;;;;;;;4.72;3.47;;;14.00;93.10;;;;;;2074515;28;20048;-92
2021/10/27 03:16:15;;;;;;;5.85;3.33;;;13.90;93.10;;;;;;2075506;28;20392;-92
2021/10/27 03:17:18;;;;;;;5.30;3.60;;;13.90;93.10;;;;;;2070641;28;20042;-92
2021/10/27 03:18:18;;;;;;;5.60;3.47;;;14.00;93.10;;;;;;2082288;28;20072;-92
2021/10/27 03:19:19;;;;;;;6.75;3.45;;;14.00;93.10;;;;;;2082632;28;20033;-92
2021/10/27 03:20:20;;;;;;;6.63;3.60;;;13.90;93.10;;;;;;2082555;28;20033;-92
2021/10/27 03:21:20;;;;;;;6.75;3.30;;;13.90;93.10;;;;;;2081356;28;20044;-92
2021/10/27 03:22:21;;;;;;;5.80;3.55;;;14.00;93.10;;;;;;2075735;28;20504;-93
2021/10/27 03:23:22;;;;;;;7.00;3.75;;;13.90;93.00;;;;;;2076921;28;20041;-92
2021/10/27 03:24:23;;;;;;;7.43;3.53;;;13.90;93.00;;;;;;2074506;28;20034;-91
2021/10/27 03:25:23;;;;;;;6.10;3.28;;;13.90;93.00;;;;;;2074555;28;20042;-91
2021/10/27 03:26:24;;;;;;;6.88;3.17;;;14.00;93.00;;;;;;2074066;28;20606;-92
2021/10/27 03:27:24;;;;;;;5.63;3.00;;;13.90;93.00;;;;;;2074489;28;20065;-92
2021/10/27 03:28:25;;;;;;;5.80;3.15;;;13.90;93.00;;;;;;2076139;28;20464;-92
2021/10/27 03:29:26;;;;;;;6.93;3.25;;;14.00;93.00;;;;;;2074549;28;20555;-91
2021/10/27 03:30:28;;;;;;;4.85;2.83;;;14.00;93.00;;;;;;2074433;28;20048;-91
2021/10/27 03:31:29;;;;;;;6.53;3.33;;;13.90;93.00;;;;;;2074382;28;20046;-91
2021/10/27 03:32:30;;;;;;;4.45;2.90;;;13.90;93.00;;;;;;2081151;28;20042;-91
2021/10/27 03:33:31;;;;;;;6.95;2.90;;;13.90;93.00;;;;;;2082661;28;20111;-90
2021/10/27 03:34:31;;;;;;;5.35;3.08;;;13.90;93.00;;;;;;2080758;28;20014;-91
2021/10/27 03:35:32;;;;;;;7.20;2.88;;;13.90;93.00;;;;;;2074772;28;20089;-92
2021/10/27 03:36:33;;;;;;;5.63;3.00;;;13.90;93.00;;;;;;2082526;28;20157;-90
2021/10/27 03:37:35;;;;;;;5.43;2.83;;;13.90;93.00;;;;;;2082557;28;20065;-91
2021/10/27 03:38:36;;;;;;;5.05;2.88;;;13.90;93.00;;;;;;2074244;28;20095;-91
2021/10/27 03:39:37;;;;;;;5.20;2.67;;;13.90;93.00;;;;;;2070205;28;20469;-92
2021/10/27 03:40:38;;;;;;;5.05;2.60;;;13.90;93.00;;;;;;2074095;28;20055;-92
2021/10/27 03:41:39;;;;;;;6.63;2.60;;;13.90;93.00;;;;;;2074417;28;20046;-92
2021/10/27 03:42:40;;;;;;;5.18;2.55;;;13.90;93.00;;;;;;2077152;28;20116;-91
2021/10/27 03:43:42;;;;;;;5.97;2.65;;;13.90;93.00;;;;;;2080865;28;20034;-91
2021/10/27 03:44:42;;;;;;;4.55;2.53;;;13.90;93.00;;;;;;2074951;28;20559;-91
2021/10/27 03:45:43;;;;;;;5.97;2.80;;;13.90;93.00;;;;;;2068014;28;20030;-91
2021/10/27 03:46:44;;;;;;;5.47;2.60;;;13.90;93.00;;;;;;2073307;28;20294;-91
2021/10/27 03:47:44;;;;;;;4.75;2.15;;;13.90;93.00;;;;;;2074833;28;20034;-92
2021/10/27 03:48:45;;;;;;;5.38;2.40;;;13.90;93.00;;;;;;2075477;28;20041;-90
2021/10/27 03:49:46;;;;;;;7.10;2.67;;;13.90;92.90;;;;;;2078103;28;20042;-94
2021/10/27 03:50:46;;;;;;;5.60;2.13;;;13.90;92.90;;;;;;2075347;28;20116;-92
2021/10/27 03:51:48;;;;;;;5.25;2.55;;;14.00;93.00;;;;;;2074383;28;20554;-91
2021/10/27 03:52:48;;;;;;;5.20;2.40;;;13.90;92.90;;;;;;2077600;28;20065;-92
2021/10/27 03:53:49;;;;;;;4.82;2.22;;;13.90;92.90;;;;;;2082619;28;20088;-93
2021/10/27 03:54:50;;;;;;;6.03;2.47;;;13.90;92.90;;;;;;2073986;28;20080;-92
2021/10/27 03:55:51;;;;;;;6.05;2.60;;;13.90;92.90;;;;;;2081620;28;20041;-91
2021/10/27 03:56:51;;;;;;;4.70;2.47;;;13.90;92.90;;;;;;2082210;28;20034;-91
2021/10/27 03:57:52;;;;;;;4.40;2.40;;;13.90;92.90;;;;;;2073624;28;20044;-91
2021/10/27 03:58:52;;;;;;;7.15;2.38;;;13.90;92.90;;;;;;2073581;28;20066;-91
2021/10/27 03:59:53;;;;;;;7.43;2.35;;;13.90;92.90;;;;;;2066061;28;20054;-91
2021/10/27 04:00:54;;;;;;;4.88;2.20;;;13.90;92.90;;;;;;2066081;28;20084;-92
2021/10/27 04:01:54;;;;;;;5.22;2.10;;;13.90;92.90;;;;;;2075285;28;20153;-91
2021/10/27 04:02:55;;;;;;;5.13;2.55;;;14.00;92.90;;;;;;2074147;28;20531;-91
2021/10/27 04:03:55;;;;;;;4.43;2.13;;;13.90;92.80;;;;;;2073673;28;20072;-92
2021/10/27 04:04:56;;;;;;;6.25;2.50;;;13.90;92.80;;;;;;2071186;28;20030;-91
2021/10/27 04:05:57;;;;;;;6.50;2.47;;;13.90;92.80;;;;;;2081278;28;20473;-91
2021/10/27 04:06:57;;;;;;;4.75;2.30;;;13.90;92.80;;;;;;2065989;28;20041;-92
2021/10/27 04:07:58;;;;;;;4.22;2.20;;;13.90;93.10;;;;;;2069350;28;20037;-91
2021/10/27 04:08:58;;;;;;;4.93;2.40;;;13.90;92.80;;;;;;2077132;28;20034;-90
2021/10/27 04:09:59;;;;;;;5.88;2.10;;;13.90;92.80;;;;;;2074867;28;20048;-92
2021/10/27 04:11:00;;;;;;;4.43;2.05;;;13.90;92.80;;;;;;2077642;28;20041;-90
2021/10/27 04:12:01;;;;;;;4.95;2.17;;;14.00;92.80;;;;;;2077083;28;20050;-91
2021/10/27 04:13:02;;;;;;;6.32;2.22;;;13.90;92.80;;;;;;2075934;28;20165;-91
2021/10/27 04:14:03;;;;;;;5.30;2.33;;;13.90;92.80;;;;;;2076371;28;20569;-92
2021/10/27 04:15:06;;;;;;;5.80;2.08;;;14.00;92.80;;;;;;2077364;28;20030;-91
2021/10/27 04:16:07;;;;;;;6.80;2.33;;;13.90;92.70;;;;;;2077868;28;20038;-91
2021/10/27 04:17:07;;;;;;;5.85;2.30;;;14.00;92.80;;;;;;2078540;28;20040;-91
2021/10/27 04:18:08;;;;;;;4.00;2.00;;;13.90;92.70;;;;;;2070102;28;20050;-90
2021/10/27 04:19:09;;;;;;;4.82;2.10;;;14.00;92.70;;;;;;2073491;28;20077;-90
2021/10/27 04:20:10;;;;;;;5.88;2.13;;;14.00;92.70;;;;;;2074208;28;20137;-92
2021/10/27 04:21:11;;;;;;;4.10;1.90;;;14.00;92.70;;;;;;2069757;28;20030;-91
2021/10/27 04:22:12;;;;;;;5.32;2.10;;;14.00;92.70;;;;;;2070989;28;20042;-90
2021/10/27 04:23:13;;;;;;;4.47;2.10;;;14.00;92.80;;;;;;2072171;28;20043;-91
2021/10/27 04:24:14;;;;;;;4.97;2.10;;;14.00;92.70;;;;;;2075172;28;20046;-91
2021/10/27 04:25:14;;;;;;;3.58;1.90;;;14.00;92.70;;;;;;2081489;28;20563;-90
2021/10/27 04:26:15;;;;;;;5.60;2.13;;;14.00;92.70;;;;;;2079733;28;20042;-91
2021/10/27 04:27:17;;;;;;;5.65;2.10;;;14.00;92.70;;;;;;2073797;28;20572;-85
2021/10/27 04:28:17;;;;;;;4.88;1.73;;;14.00;92.60;;;;;;2073408;28;20423;-87
2021/10/27 04:29:18;;;;;;;4.15;1.90;;;14.00;92.60;;;;;;2074844;28;20033;-91
2021/10/27 04:30:19;;;;;;;4.28;1.80;;;14.00;92.60;;;;;;2074186;28;20038;-90
2021/10/27 04:31:20;;;;;;;4.15;1.98;;;14.00;92.60;;;;;;2073303;28;20054;-91
2021/10/27 04:32:21;;;;;;;6.00;1.85;;;14.00;92.60;;;;;;2073967;28;20436;-91
2021/10/27 04:33:23;;;;;;;6.63;1.75;;;14.00;92.60;;;;;;2065805;28;20037;-91
2021/10/27 04:34:23;;;;;;;5.03;2.30;;;14.00;92.60;;;;;;2073635;28;20030;-92
2021/10/27 04:35:25;;;;;;;4.13;1.80;;;14.00;92.60;;;;;;2075035;28;20084;-92
2021/10/27 04:36:26;;;;;;;4.18;1.70;;;14.00;92.60;;;;;;2069461;28;20061;-90
2021/10/27 04:37:31;;;;;;;4.38;1.80;;;14.00;92.60;;;;;;2072835;28;20045;-90
2021/10/27 04:38:32;;;;;;;4.07;1.77;;;14.00;92.60;;;;;;2074283;28;20124;-90
2021/10/27 04:39:33;;;;;;;4.05;1.67;;;14.00;92.50;;;;;;2081248;28;20552;-90
2021/10/27 04:40:33;;;;;;;3.97;1.83;;;14.00;92.50;;;;;;2077027;28;20392;-90
2021/10/27 04:41:34;;;;;;;6.38;2.13;;;14.00;92.50;;;;;;2070705;28;20523;-90
2021/10/27 04:42:35;;;;;;;5.90;2.08;;;14.00;92.50;;;;;;2077814;28;20034;-90
2021/10/27 04:43:36;;;;;;;4.93;1.77;;;14.00;92.50;;;;;;2076002;28;20558;-91
2021/10/27 04:44:37;;;;;;;3.83;1.90;;;14.00;92.50;;;;;;2078339;28;20061;-91
2021/10/27 04:45:38;;;;;;;4.53;1.83;;;14.00;92.50;;;;;;2073686;28;20542;-92
2021/10/27 04:46:39;;;;;;;5.07;1.80;;;14.00;92.50;;;;;;2078857;28;20036;-91
2021/10/27 04:47:42;;;;;;;6.57;2.22;;;14.00;92.50;;;;;;2065446;28;20041;-91
2021/10/27 04:48:43;;;;;;;4.30;1.80;;;14.00;92.50;;;;;;2050330;28;20035;-91
2021/10/27 04:49:43;;;;;;;3.10;1.70;;;14.00;92.50;;;;;;2066003;28;20043;-91
2021/10/27 04:50:44;;;;;;;3.58;1.90;;;14.00;92.50;;;;;;2065835;28;20420;-91
2021/10/27 04:51:45;;;;;;;4.47;2.00;;;14.00;92.50;;;;;;2066236;28;20054;-90
2021/10/27 04:52:46;;;;;;;4.10;1.85;;;14.00;92.50;;;;;;2078205;28;20034;-90
2021/10/27 04:53:46;;;;;;;2.95;1.90;;;14.00;92.40;;;;;;2078234;28;20049;-90
2021/10/27 04:54:47;;;;;;;3.67;2.00;;;14.00;92.40;;;;;;2075362;28;20060;-92
2021/10/27 04:55:48;;;;;;;3.40;1.75;;;14.00;92.40;;;;;;2073065;28;20484;-90
2021/10/27 04:56:49;;;;;;;3.92;1.88;;;14.00;92.40;;;;;;2078358;28;20034;-91
2021/10/27 04:57:50;;;;;;;4.40;1.98;;;14.00;92.40;;;;;;2061307;28;20031;-91
2021/10/27 04:58:51;;;;;;;4.20;1.80;;;14.00;92.40;;;;;;2072886;28;20038;-91
2021/10/27 04:59:51;;;;;;;4.22;1.90;;;14.00;92.40;;;;;;2074707;28;20576;-89
2021/10/27 05:00:52;;;;;;;3.20;1.80;;;14.00;92.40;;;;;;2067918;28;20049;-88
2021/10/27 05:01:53;;;;;;;5.43;1.65;;;14.00;92.40;;;;;;2069985;28;20133;-88
2021/10/27 05:02:54;;;;;;;4.47;1.70;;;14.00;92.40;;;;;;2058028;28;20047;-90
2021/10/27 05:03:55;;;;;;;4.40;1.80;;;14.00;92.40;;;;;;2063556;28;20034;-88
2021/10/27 05:04:56;;;;;;;4.80;1.95;;;14.00;92.40;;;;;;2061876;28;20524;-89
2021/10/27 05:05:57;;;;;;;5.07;1.80;;;14.00;92.40;;;;;;2064612;28;20034;-89
2021/10/27 05:06:58;;;;;;;4.20;2.00;;;14.00;92.40;;;;;;2074357;28;20046;-90
2021/10/27 05:08:00;;;;;;;4.60;1.80;;;14.00;92.30;;;;;;2080803;28;20061;-89
2021/10/27 05:09:01;;;;;;;5.78;1.73;;;14.00;92.30;;;;;;2072720;28;20592;-89
2021/10/27 05:10:02;;;;;;;5.28;1.70;;;14.00;92.30;;;;;;2079249;28;20041;-90
2021/10/27 05:11:03;;;;;;;4.15;1.77;;;14.00;92.30;;;;;;2074339;28;20046;-90
2021/10/27 05:12:04;;;;;;;3.42;1.60;;;14.00;92.30;;;;;;2077167;28;20084;-87
2021/10/27 05:13:05;;;;;;;3.42;1.60;;;14.00;92.30;;;;;;2081081;28;20030;-89
2021/10/27 05:14:06;;;;;;;3.47;1.55;;;14.00;92.30;;;;;;2071824;28;20042;-90
2021/10/27 05:15:08;;;;;;;5.22;2.10;;;14.00;92.30;;;;;;2056589;28;20038;-90
2021/10/27 05:16:08;;;;;;;5.10;1.70;;;14.00;92.30;;;;;;2056271;28;20074;-90